Time;durP1;ratioP1;P1;durP2;ratioP2;P2;SDS_P1;SDS_P2;PMS_P1;PMS_P2;Temp;Humidity;BMP_temperature;BMP_pressure;BME280_temperature;BME280_humidity;BME280_pressure;Samples;Min_cycle;Max_cycle;Signal;HPM_P1;HPM_P2
2022/11/24 00:01:49;;;;;;;;;;;4.10;99.90;;;;;;5070396;28;19957;-59
2022/11/24 00:04:14;;;;;;;;;;;4.10;99.90;;;;;;5092579;28;20380;-59
2022/11/24 00:06:40;;;;;;;;;;;4.10;99.90;;;;;;5093113;28;19908;-58
2022/11/24 00:09:05;;;;;;;;;;;4.10;99.90;;;;;;5093001;28;20003;-59
2022/11/24 00:11:32;;;;;;;;;;;4.10;99.90;;;;;;5092547;28;19908;-59
2022/11/24 00:13:58;;;;;;;;;;;4.10;99.90;;;;;;5071988;28;19908;-60
2022/11/24 00:16:27;;;;;;;;;;;4.10;99.90;;;;;;5175295;22;20446;-59
2022/11/24 00:18:54;;;;;;;;;;;4.10;99.90;;;;;;5091063;28;19919;-58
2022/11/24 00:21:20;;;;;;;;;;;4.10;99.90;;;;;;5092095;28;19923;-58
2022/11/24 00:23:46;;;;;;;;;;;4.10;99.90;;;;;;5092046;28;19916;-57
2022/11/24 00:26:12;;;;;;;;;;;4.10;99.90;;;;;;5092478;28;19908;-59
2022/11/24 00:28:38;;;;;;;;;;;4.10;99.90;;;;;;5086444;28;20488;-57
2022/11/24 00:31:04;;;;;;;;;;;4.10;99.90;;;;;;5088696;28;19973;-58
2022/11/24 00:33:30;;;;;;;;;;;4.10;99.90;;;;;;5082660;28;19908;-60
2022/11/24 00:35:59;;;;;;;;;;;4.10;99.90;;;;;;5086407;28;19908;-57
2022/11/24 00:38:25;;;;;;;;;;;4.10;99.90;;;;;;5090044;28;19934;-60
2022/11/24 00:40:50;;;;;;;;;;;4.10;99.90;;;;;;5087409;28;19908;-60
2022/11/24 00:43:16;;;;;;;;;;;4.10;99.90;;;;;;5091079;28;19904;-60
2022/11/24 00:45:42;;;;;;;;;;;4.10;99.90;;;;;;5080447;28;19922;-60
2022/11/24 00:48:07;;;;;;;;;;;4.10;99.90;;;;;;5082175;28;19911;-58
2022/11/24 00:50:33;;;;;;;;;;;4.10;99.90;;;;;;5087225;28;20287;-59
2022/11/24 00:52:58;;;;;;;;;;;4.10;99.90;;;;;;5088833;28;19962;-61
2022/11/24 00:55:24;;;;;;;;;;;4.10;99.90;;;;;;5081297;28;19994;-62
2022/11/24 00:57:50;;;;;;;;;;;4.10;99.90;;;;;;5086522;28;19915;-60
2022/11/24 01:00:16;;;;;;;;;;;4.10;99.90;;;;;;5080646;28;19970;-61
2022/11/24 01:02:41;;;;;;;;;;;4.10;99.90;;;;;;5075109;28;20004;-59
2022/11/24 01:05:07;;;;;;;;;;;4.10;99.90;;;;;;5087314;28;19922;-61
2022/11/24 01:07:32;;;;;;;;;;;4.20;99.90;;;;;;5090743;28;19933;-61
2022/11/24 01:09:58;;;;;;;;;;;4.20;99.90;;;;;;5088778;28;20322;-61
2022/11/24 01:12:23;;;;;;;;;;;4.20;99.90;;;;;;5082011;28;20002;-61
2022/11/24 01:14:49;;;;;;;;;;;4.20;99.90;;;;;;5087841;28;19907;-61
2022/11/24 01:17:14;;;;;;;;;;;4.20;99.90;;;;;;5090127;28;20306;-61
2022/11/24 01:19:39;;;;;;;;;;;4.20;99.90;;;;;;5088723;28;19915;-61
2022/11/24 01:22:05;;;;;;;;;;;4.20;99.90;;;;;;5081591;28;19912;-60
2022/11/24 01:24:30;;;;;;;;;;;4.20;99.90;;;;;;5085891;28;20003;-62
2022/11/24 01:26:56;;;;;;;;;;;4.20;99.90;;;;;;5086774;28;20277;-61
2022/11/24 01:29:21;;;;;;;;;;;4.20;99.90;;;;;;5085871;28;19919;-61
2022/11/24 01:31:47;;;;;;;;;;;4.20;99.90;;;;;;5088319;28;19933;-61
2022/11/24 01:34:12;;;;;;;;;;;4.20;99.90;;;;;;5065766;28;19915;-60
2022/11/24 01:36:38;;;;;;;;;;;4.20;99.90;;;;;;5065711;28;19911;-62
2022/11/24 01:39:03;;;;;;;;;;;4.20;99.90;;;;;;5085200;28;20031;-61
2022/11/24 01:41:29;;;;;;;;;;;4.20;99.90;;;;;;5086187;28;19963;-62
2022/11/24 01:43:56;;;;;;;;;;;4.20;99.90;;;;;;5090206;28;20367;-60
2022/11/24 01:46:23;;;;;;;;;;;4.20;99.90;;;;;;5077871;28;20298;-61
2022/11/24 01:48:55;;;;;;;;;;;4.20;99.90;;;;;;5080528;28;19965;-58
2022/11/24 01:51:23;;;;;;;;;;;4.20;99.90;;;;;;5085133;28;19908;-59
2022/11/24 01:53:51;;;;;;;;;;;4.20;99.90;;;;;;5088464;28;19946;-57
2022/11/24 01:56:17;;;;;;;;;;;4.20;99.90;;;;;;5079758;28;20299;-60
2022/11/24 01:58:43;;;;;;;;;;;4.20;99.90;;;;;;5082065;28;19912;-59
2022/11/24 02:01:08;;;;;;;;;;;4.20;99.90;;;;;;5077310;28;19939;-59
2022/11/24 02:03:36;;;;;;;;;;;4.30;99.90;;;;;;5072330;28;20375;-55
2022/11/24 02:06:12;;;;;;;;;;;4.30;99.90;;;;;;5086971;28;19919;-59
2022/11/24 02:08:37;;;;;;;;;;;4.30;99.90;;;;;;5078846;28;19935;-56
2022/11/24 02:11:03;;;;;;;;;;;4.30;99.90;;;;;;5081228;28;20357;-58
2022/11/24 02:13:30;;;;;;;;;;;4.30;99.90;;;;;;5090110;28;19908;-57
2022/11/24 02:15:55;;;;;;;;;;;4.30;99.90;;;;;;5081713;28;19954;-59
2022/11/24 02:18:21;;;;;;;;;;;4.30;99.90;;;;;;5083432;28;20008;-58
2022/11/24 02:20:46;;;;;;;;;;;4.40;99.90;;;;;;5082471;28;19911;-60
2022/11/24 02:23:34;;;;;;;;;;;4.40;99.90;;;;;;5086897;28;19915;-59
2022/11/24 02:26:05;;;;;;;;;;;4.30;99.90;;;;;;5089438;28;20371;-58
2022/11/24 02:28:31;;;;;;;;;;;4.40;99.90;;;;;;5079524;28;20296;-59
2022/11/24 02:30:58;;;;;;;;;;;4.30;99.90;;;;;;5080159;28;19904;-58
2022/11/24 02:33:24;;;;;;;;;;;4.40;99.90;;;;;;5084984;28;19904;-58
2022/11/24 02:35:50;;;;;;;;;;;4.30;99.90;;;;;;5086841;28;20023;-60
2022/11/24 02:38:15;;;;;;;;;;;4.30;99.90;;;;;;5082827;28;19947;-59
2022/11/24 02:40:43;;;;;;;;;;;4.30;99.90;;;;;;5086569;28;19990;-58
2022/11/24 02:43:11;;;;;;;;;;;4.30;99.90;;;;;;5060450;28;19915;-58
2022/11/24 02:45:36;;;;;;;;;;;4.30;99.90;;;;;;5085129;28;19943;-57
2022/11/24 02:48:02;;;;;;;;;;;4.30;99.90;;;;;;5074697;28;19909;-58
2022/11/24 02:50:27;;;;;;;;;;;4.30;99.90;;;;;;5083792;28;20007;-57
2022/11/24 02:52:53;;;;;;;;;;;4.30;99.90;;;;;;5086719;28;20334;-59
2022/11/24 02:55:19;;;;;;;;;;;4.30;99.90;;;;;;5081755;28;19912;-59
2022/11/24 02:57:44;;;;;;;;;;;4.30;99.90;;;;;;5061417;28;19916;-59
2022/11/24 03:00:10;;;;;;;;;;;4.30;99.90;;;;;;5084206;28;20459;-59
2022/11/24 03:02:37;;;;;;;;;;;4.20;99.90;;;;;;5084776;28;19951;-59
2022/11/24 03:05:02;;;;;;;;;;;4.20;99.90;;;;;;5083205;28;19967;-59
2022/11/24 03:07:28;;;;;;;;;;;4.20;99.90;;;;;;5085709;28;19916;-60
2022/11/24 03:09:53;;;;;;;;;;;4.20;99.90;;;;;;5085630;28;19908;-58
2022/11/24 03:12:18;;;;;;;;;;;4.20;99.90;;;;;;5081315;28;19912;-58
2022/11/24 03:14:44;;;;;;;;;;;4.20;99.90;;;;;;5077151;28;19915;-60
2022/11/24 03:17:09;;;;;;;;;;;4.20;99.90;;;;;;5082267;28;19920;-58
2022/11/24 03:19:35;;;;;;;;;;;4.20;99.90;;;;;;5089848;28;19912;-59
2022/11/24 03:22:00;;;;;;;;;;;4.20;99.90;;;;;;5074294;28;20275;-59
2022/11/24 03:24:26;;;;;;;;;;;4.20;99.90;;;;;;5089319;28;20441;-59
2022/11/24 03:26:51;;;;;;;;;;;4.20;99.90;;;;;;5088973;28;19947;-58
2022/11/24 03:29:17;;;;;;;;;;;4.20;99.90;;;;;;5085056;28;19977;-59
2022/11/24 03:31:42;;;;;;;;;;;4.20;99.90;;;;;;5086600;28;19987;-59
2022/11/24 03:34:08;;;;;;;;;;;4.20;99.90;;;;;;5092945;28;19965;-58
2022/11/24 03:36:33;;;;;;;;;;;4.20;99.90;;;;;;5089971;28;19915;-57
2022/11/24 03:38:59;;;;;;;;;;;4.10;99.90;;;;;;5086025;28;20007;-59
2022/11/24 03:41:24;;;;;;;;;;;4.20;99.90;;;;;;5095898;28;19915;-58
2022/11/24 03:43:50;;;;;;;;;;;4.10;99.90;;;;;;5086941;28;19911;-60
2022/11/24 03:46:15;;;;;;;;;;;4.20;99.90;;;;;;5093932;28;19977;-60
2022/11/24 03:48:41;;;;;;;;;;;4.20;99.90;;;;;;5091208;28;19908;-59
2022/11/24 03:51:06;;;;;;;;;;;4.20;99.90;;;;;;5084185;28;19912;-60
2022/11/24 03:53:32;;;;;;;;;;;4.20;99.90;;;;;;5088773;28;20291;-57
2022/11/24 03:55:58;;;;;;;;;;;4.20;99.90;;;;;;5091759;28;20171;-60
2022/11/24 03:58:24;;;;;;;;;;;4.20;99.90;;;;;;5082989;28;20376;-59
2022/11/24 04:00:50;;;;;;;;;;;4.20;99.90;;;;;;5092279;28;19957;-60
2022/11/24 04:03:16;;;;;;;;;;;4.20;99.90;;;;;;5090668;28;19912;-59
2022/11/24 04:05:41;;;;;;;;;;;4.30;99.90;;;;;;5089933;28;20027;-58
2022/11/24 04:08:07;;;;;;;;;;;4.30;99.90;;;;;;5089758;28;19966;-58
2022/11/24 04:10:34;;;;;;;;;;;4.30;99.90;;;;;;5073302;28;19995;-58
2022/11/24 04:13:00;;;;;;;;;;;4.30;99.90;;;;;;5091513;28;20371;-59
2022/11/24 04:15:25;;;;;;;;;;;4.30;99.90;;;;;;5091144;28;19908;-58
2022/11/24 04:17:53;;;;;;;;;;;4.30;99.90;;;;;;5090557;28;20010;-58
2022/11/24 04:20:18;;;;;;;;;;;4.30;99.90;;;;;;5084085;28;19998;-57
2022/11/24 04:22:44;;;;;;;;;;;4.30;99.90;;;;;;5093979;28;20014;-58
2022/11/24 04:25:10;;;;;;;;;;;4.30;99.90;;;;;;5087579;28;19990;-58
2022/11/24 04:27:35;;;;;;;;;;;4.30;99.90;;;;;;5088073;28;20364;-56
2022/11/24 04:30:02;;;;;;;;;;;4.30;99.90;;;;;;5091899;28;20371;-59
2022/11/24 04:32:27;;;;;;;;;;;4.30;99.90;;;;;;5085556;28;19915;-60
2022/11/24 04:34:53;;;;;;;;;;;4.40;99.90;;;;;;5094612;28;19908;-58
2022/11/24 04:37:18;;;;;;;;;;;4.40;99.90;;;;;;5090872;28;19962;-58
2022/11/24 04:39:45;;;;;;;;;;;4.40;99.90;;;;;;5068005;28;19908;-58
2022/11/24 04:42:10;;;;;;;;;;;4.40;99.90;;;;;;5089008;28;19939;-57
2022/11/24 04:44:36;;;;;;;;;;;4.40;99.90;;;;;;5088394;28;20364;-57
2022/11/24 04:47:01;;;;;;;;;;;4.40;99.90;;;;;;5061424;28;20287;-58
2022/11/24 04:49:27;;;;;;;;;;;4.40;99.90;;;;;;5085891;28;19950;-58
2022/11/24 04:51:52;;;;;;;;;;;4.50;99.90;;;;;;5090021;28;19908;-58
2022/11/24 04:54:18;;;;;;;;;;;4.40;99.90;;;;;;5065012;28;19911;-58
2022/11/24 04:56:43;;;;;;;;;;;4.40;99.90;;;;;;5088300;28;20280;-58
2022/11/24 04:59:13;;;;;;;;;;;4.40;99.90;;;;;;5086214;28;19919;-58
2022/11/24 05:01:39;;;;;;;;;;;4.40;99.90;;;;;;5087433;28;19919;-58
2022/11/24 05:04:04;;;;;;;;;;;4.50;99.90;;;;;;5089182;28;20319;-57
2022/11/24 05:06:31;;;;;;;;;;;4.50;99.90;;;;;;5086560;28;19916;-59
2022/11/24 05:08:57;;;;;;;;;;;4.50;99.90;;;;;;5087307;28;19939;-59
2022/11/24 05:11:22;;;;;;;;;;;4.50;99.90;;;;;;5061966;28;19993;-55
2022/11/24 05:13:48;;;;;;;;;;;4.50;99.90;;;;;;5082423;28;19912;-59
2022/11/24 05:16:14;;;;;;;;;;;4.50;99.90;;;;;;5065390;28;20317;-56
2022/11/24 05:18:39;;;;;;;;;;;4.50;99.90;;;;;;5090974;28;19939;-58
2022/11/24 05:21:05;;;;;;;;;;;4.50;99.90;;;;;;5086049;28;19957;-57
2022/11/24 05:23:30;;;;;;;;;;;4.50;99.90;;;;;;5077729;28;19908;-59
2022/11/24 05:26:00;;;;;;;;;;;4.50;99.90;;;;;;5086423;28;19915;-58
2022/11/24 05:28:25;;;;;;;;;;;4.60;99.90;;;;;;5086716;28;19915;-57
2022/11/24 05:30:51;;;;;;;;;;;4.60;99.90;;;;;;5083899;28;20307;-59
2022/11/24 05:33:21;;;;;;;;;;;4.60;99.90;;;;;;5076206;28;19904;-59
2022/11/24 05:35:50;;;;;;;;;;;4.60;99.90;;;;;;5084998;28;19908;-56
2022/11/24 05:38:16;;;;;;;;;;;4.60;99.90;;;;;;5082244;28;20053;-59
2022/11/24 05:40:42;;;;;;;;;;;4.60;99.90;;;;;;5081897;28;19912;-58
2022/11/24 05:43:11;;;;;;;;;;;4.60;99.90;;;;;;5083705;28;19918;-55
2022/11/24 05:45:37;;;;;;;;;;;4.60;99.90;;;;;;5077166;28;20364;-59
2022/11/24 05:48:03;;;;;;;;;;;4.60;99.90;;;;;;5084702;28;19915;-59
2022/11/24 05:50:28;;;;;;;;;;;4.60;99.90;;;;;;5088431;28;19969;-58
2022/11/24 05:52:54;;;;;;;;;;;4.70;99.90;;;;;;5088478;28;19916;-59
2022/11/24 05:55:19;;;;;;;;;;;4.70;99.90;;;;;;5075885;28;19948;-60
2022/11/24 05:57:45;;;;;;;;;;;4.70;99.90;;;;;;5083671;28;20351;-59
2022/11/24 06:00:10;;;;;;;;;;;4.70;99.90;;;;;;5085744;28;19916;-59
2022/11/24 06:02:36;;;;;;;;;;;4.70;99.90;;;;;;5084091;28;19991;-60
2022/11/24 06:05:01;;;;;;;;;;;4.70;99.90;;;;;;5082909;28;20328;-59
2022/11/24 06:07:27;;;;;;;;;;;4.70;99.90;;;;;;5087429;28;19912;-58
2022/11/24 06:09:52;;;;;;;;;;;4.70;99.90;;;;;;5081700;28;19914;-58
2022/11/24 06:12:19;;;;;;;;;;;4.70;99.90;;;;;;5087144;28;19955;-59
2022/11/24 06:14:44;;;;;;;;;;;4.70;99.90;;;;;;5082732;28;20177;-57
2022/11/24 06:17:10;;;;;;;;;;;4.80;99.90;;;;;;5089170;28;19920;-58
2022/11/24 06:19:36;;;;;;;;;;;4.80;99.90;;;;;;5106561;22;19974;-68
2022/11/24 06:22:01;;;;;;;;;;;4.80;99.90;;;;;;5088398;28;20344;-66
2022/11/24 06:24:27;;;;;;;;;;;4.80;99.90;;;;;;5069639;28;20367;-67
2022/11/24 06:26:52;;;;;;;;;;;4.80;99.90;;;;;;5089914;28;19966;-67
2022/11/24 06:29:18;;;;;;;;;;;4.80;99.90;;;;;;5069017;28;19960;-67
2022/11/24 06:31:43;;;;;;;;;;;4.80;99.90;;;;;;5089639;28;19912;-66
2022/11/24 06:34:10;;;;;;;;;;;4.80;99.90;;;;;;5090440;28;19911;-68
2022/11/24 06:36:36;;;;;;;;;;;4.70;99.90;;;;;;5089751;28;20321;-67
2022/11/24 06:39:02;;;;;;;;;;;4.80;99.90;;;;;;5089584;28;20003;-67
2022/11/24 06:41:28;;;;;;;;;;;4.70;99.90;;;;;;5080611;28;19911;-67
2022/11/24 06:43:53;;;;;;;;;;;4.70;99.90;;;;;;5089262;28;19912;-67
2022/11/24 06:46:19;;;;;;;;;;;4.80;99.90;;;;;;5089140;28;19916;-68
2022/11/24 06:48:45;;;;;;;;;;;4.80;99.90;;;;;;5089698;28;20390;-69
2022/11/24 06:51:11;;;;;;;;;;;4.80;99.90;;;;;;5088666;28;19962;-70
2022/11/24 06:53:37;;;;;;;;;;;4.80;99.90;;;;;;5089784;28;20474;-69
2022/11/24 06:56:04;;;;;;;;;;;4.80;99.90;;;;;;5085743;28;19940;-68
2022/11/24 06:58:30;;;;;;;;;;;4.80;99.90;;;;;;5089176;28;19933;-68
2022/11/24 07:00:55;;;;;;;;;;;4.80;99.90;;;;;;5089928;28;19908;-67
2022/11/24 07:03:21;;;;;;;;;;;4.70;99.90;;;;;;5071448;28;20052;-69
2022/11/24 07:05:47;;;;;;;;;;;4.70;99.90;;;;;;5075877;28;19943;-68
2022/11/24 07:08:12;;;;;;;;;;;4.70;99.90;;;;;;5089704;28;19916;-68
2022/11/24 07:10:38;;;;;;;;;;;4.70;99.90;;;;;;5076212;28;19995;-68
2022/11/24 07:13:06;;;;;;;;;;;4.70;99.90;;;;;;5089275;28;20385;-69
2022/11/24 07:15:31;;;;;;;;;;;4.70;99.90;;;;;;5089870;28;19915;-67
2022/11/24 07:17:57;;;;;;;;;;;4.70;99.90;;;;;;5089661;28;20283;-68
2022/11/24 07:20:22;;;;;;;;;;;4.70;99.90;;;;;;5075855;28;20317;-68
2022/11/24 07:22:48;;;;;;;;;;;4.60;99.90;;;;;;5089396;28;19908;-68
2022/11/24 07:25:13;;;;;;;;;;;4.60;99.90;;;;;;5076727;28;19912;-67
2022/11/24 07:27:39;;;;;;;;;;;4.60;99.90;;;;;;5089301;28;19904;-68
2022/11/24 07:30:06;;;;;;;;;;;4.60;99.90;;;;;;5089439;28;20381;-67
2022/11/24 07:32:31;;;;;;;;;;;4.60;99.90;;;;;;5074401;28;20379;-67
2022/11/24 07:34:57;;;;;;;;;;;4.60;99.90;;;;;;5089610;28;20006;-67
2022/11/24 07:37:23;;;;;;;;;;;4.60;99.90;;;;;;5089875;28;19904;-67
2022/11/24 07:39:48;;;;;;;;;;;4.60;99.90;;;;;;5079981;28;19904;-69
2022/11/24 07:42:13;;;;;;;;;;;4.60;99.90;;;;;;5077764;28;19911;-67
2022/11/24 07:44:39;;;;;;;;;;;4.60;99.90;;;;;;5089400;28;20379;-67
2022/11/24 07:47:05;;;;;;;;;;;4.60;99.90;;;;;;5089877;28;20287;-67
2022/11/24 07:49:30;;;;;;;;;;;4.60;99.90;;;;;;5088913;28;19904;-69
2022/11/24 07:51:56;;;;;;;;;;;4.60;99.90;;;;;;5089520;28;19913;-67
2022/11/24 07:54:21;;;;;;;;;;;4.60;99.90;;;;;;5089519;28;19904;-67
2022/11/24 07:56:47;;;;;;;;;;;4.70;99.90;;;;;;5089656;28;19928;-67
2022/11/24 07:59:13;;;;;;;;;;;4.60;99.90;;;;;;5088971;28;19904;-69
2022/11/24 08:01:38;;;;;;;;;;;4.70;99.90;;;;;;5078815;28;20006;-68
2022/11/24 08:04:04;;;;;;;;;;;4.70;99.90;;;;;;5089709;28;20383;-67
2022/11/24 08:06:30;;;;;;;;;;;4.70;99.90;;;;;;5089127;28;20291;-69
2022/11/24 08:08:56;;;;;;;;;;;4.70;99.90;;;;;;5088924;28;19908;-68
2022/11/24 08:11:22;;;;;;;;;;;4.70;99.90;;;;;;5072512;28;19919;-68
2022/11/24 08:13:47;;;;;;;;;;;4.70;99.90;;;;;;5088921;28;19935;-70
2022/11/24 08:16:14;;;;;;;;;;;4.80;99.90;;;;;;5089718;28;19904;-67
2022/11/24 08:18:40;;;;;;;;;;;4.80;99.90;;;;;;5082711;28;19912;-68
2022/11/24 08:21:06;;;;;;;;;;;4.80;99.90;;;;;;5092429;28;20287;-68
2022/11/24 08:23:32;;;;;;;;;;;4.90;99.90;;;;;;5092869;28;19904;-67
2022/11/24 08:26:03;;;;;;;;;;;4.90;99.90;;;;;;5092383;28;19978;-67
2022/11/24 08:28:28;;;;;;;;;;;4.90;99.90;;;;;;5082550;28;19921;-67
2022/11/24 08:31:00;;;;;;;;;;;4.90;99.90;;;;;;5092301;28;20278;-69
2022/11/24 08:33:25;;;;;;;;;;;5.00;99.90;;;;;;5092324;28;19904;-67
2022/11/24 08:35:51;;;;;;;;;;;5.00;99.90;;;;;;5091018;28;19908;-67
2022/11/24 08:38:16;;;;;;;;;;;5.00;99.90;;;;;;5092218;28;19991;-68
2022/11/24 08:40:42;;;;;;;;;;;5.10;99.90;;;;;;5092321;28;20363;-68
2022/11/24 08:43:07;;;;;;;;;;;5.10;99.90;;;;;;5091568;28;19935;-67
2022/11/24 08:45:32;;;;;;;;;;;5.10;99.90;;;;;;5092454;28;19966;-68
2022/11/24 08:47:58;;;;;;;;;;;5.20;99.90;;;;;;5091518;28;19904;-68
2022/11/24 08:50:24;;;;;;;;;;;5.20;99.90;;;;;;5092554;28;20406;-67
2022/11/24 08:52:52;;;;;;;;;;;5.20;99.90;;;;;;5077297;28;19904;-68
2022/11/24 08:55:18;;;;;;;;;;;5.20;99.90;;;;;;5092425;28;19959;-68
2022/11/24 08:57:43;;;;;;;;;;;5.20;99.90;;;;;;5091927;28;20401;-68
2022/11/24 09:00:09;;;;;;;;;;;5.30;99.90;;;;;;5082285;28;19925;-68
2022/11/24 09:02:34;;;;;;;;;;;5.30;99.90;;;;;;5077635;28;19910;-68
2022/11/24 09:05:00;;;;;;;;;;;5.30;99.90;;;;;;5091546;28;19912;-67
2022/11/24 09:07:26;;;;;;;;;;;5.30;99.90;;;;;;5091907;28;19911;-67
2022/11/24 09:09:51;;;;;;;;;;;5.40;99.90;;;;;;5089102;28;20383;-68
2022/11/24 09:12:16;;;;;;;;;;;5.40;99.90;;;;;;5090575;28;19912;-67
2022/11/24 09:14:42;;;;;;;;;;;5.50;99.90;;;;;;5077519;28;19911;-67
2022/11/24 09:17:07;;;;;;;;;;;5.50;99.90;;;;;;5081888;28;20363;-67
2022/11/24 09:19:33;;;;;;;;;;;5.50;99.90;;;;;;5089658;28;19918;-67
2022/11/24 09:21:58;;;;;;;;;;;5.60;99.90;;;;;;5091246;28;19972;-67
2022/11/24 09:24:24;;;;;;;;;;;5.60;99.90;;;;;;5091087;28;19994;-67
2022/11/24 09:26:49;;;;;;;;;;;5.70;99.90;;;;;;5091973;28;19955;-66
2022/11/24 09:29:15;;;;;;;;;;;5.70;99.90;;;;;;5090352;28;20079;-67
2022/11/24 09:31:40;;;;;;;;;;;5.70;99.90;;;;;;5091591;28;19908;-67
2022/11/24 09:34:07;;;;;;;;;;;5.80;99.90;;;;;;5091220;28;19947;-69
2022/11/24 09:36:33;;;;;;;;;;;5.80;99.90;;;;;;5079501;28;19911;-68
2022/11/24 09:38:58;;;;;;;;;;;5.80;99.90;;;;;;5090690;28;19907;-69
2022/11/24 09:41:34;;;;;;;;;;;5.90;99.90;;;;;;5091954;28;20347;-67
2022/11/24 09:44:15;;;;;;;;;;;5.90;99.90;;;;;;5072432;28;20287;-68
2022/11/24 09:46:59;;;;;;;;;;;5.90;99.90;;;;;;5086644;28;19908;-68
2022/11/24 09:49:43;;;;;;;;;;;6.00;99.90;;;;;;5093788;28;19973;-69
2022/11/24 09:52:12;;;;;;;;;;;6.00;99.90;;;;;;5091240;28;19908;-68
2022/11/24 09:54:40;;;;;;;;;;;6.10;99.90;;;;;;5076380;28;19924;-67
2022/11/24 09:57:08;;;;;;;;;;;6.10;99.90;;;;;;5080346;28;19934;-68
2022/11/24 09:59:33;;;;;;;;;;;6.20;99.90;;;;;;5077621;28;19908;-67
2022/11/24 10:01:59;;;;;;;;;;;6.20;99.90;;;;;;5090913;28;20334;-68
2022/11/24 10:04:33;;;;;;;;;;;6.20;99.90;;;;;;5091223;28;19911;-69
2022/11/24 10:07:13;;;;;;;;;;;6.20;99.90;;;;;;5088119;28;20329;-69
2022/11/24 10:09:44;;;;;;;;;;;6.30;99.90;;;;;;5090362;28;20003;-67
2022/11/24 10:12:16;;;;;;;;;;;6.30;99.90;;;;;;5078772;28;19916;-67
2022/11/24 10:14:49;;;;;;;;;;;6.30;99.90;;;;;;5092019;28;19904;-67
2022/11/24 10:17:18;;;;;;;;;;;6.40;99.90;;;;;;5074085;28;20187;-67
2022/11/24 10:19:49;;;;;;;;;;;6.40;99.90;;;;;;5094736;28;19965;-68
2022/11/24 10:22:34;;;;;;;;;;;6.40;99.90;;;;;;5089286;28;20003;-68
2022/11/24 10:25:12;;;;;;;;;;;6.40;99.90;;;;;;5100191;28;19918;-68
2022/11/24 10:27:56;;;;;;;;;;;6.50;99.90;;;;;;5079235;28;19992;-68
2022/11/24 10:30:22;;;;;;;;;;;6.50;99.90;;;;;;5090367;28;19911;-67
2022/11/24 10:33:00;;;;;;;;;;;6.60;99.90;;;;;;5078393;28;19911;-68
2022/11/24 10:35:34;;;;;;;;;;;6.60;99.90;;;;;;5086425;28;20013;-69
2022/11/24 10:38:05;;;;;;;;;;;6.60;99.90;;;;;;5099004;28;19903;-68
2022/11/24 10:40:33;;;;;;;;;;;6.70;99.90;;;;;;5091280;28;20318;-67
2022/11/24 10:42:59;;;;;;;;;;;6.70;99.90;;;;;;5094889;28;19916;-67
2022/11/24 10:45:26;;;;;;;;;;;6.80;99.90;;;;;;5089055;28;19916;-68
2022/11/24 10:47:51;;;;;;;;;;;6.80;99.90;;;;;;5097382;28;20419;-67
2022/11/24 10:50:20;;;;;;;;;;;6.80;99.90;;;;;;5093521;28;20045;-68
2022/11/24 10:52:49;;;;;;;;;;;6.90;99.90;;;;;;5095649;28;19904;-67
2022/11/24 10:55:14;;;;;;;;;;;7.00;99.90;;;;;;5100750;28;19904;-69
2022/11/24 10:57:40;;;;;;;;;;;7.10;99.90;;;;;;5094841;28;19907;-70
2022/11/24 11:00:18;;;;;;;;;;;7.20;99.90;;;;;;5098810;28;19907;-67
2022/11/24 11:02:44;;;;;;;;;;;7.20;99.90;;;;;;5094296;28;19904;-68
2022/11/24 11:05:41;;;;;;;;;;;7.20;99.90;;;;;;5097222;28;19907;-67
2022/11/24 11:08:13;;;;;;;;;;;7.20;99.90;;;;;;5047922;28;19904;-68
2022/11/24 11:10:39;;;;;;;;;;;7.20;99.90;;;;;;5086427;28;19935;-67
2022/11/24 11:13:27;;;;;;;;;;;7.20;99.90;;;;;;5090203;28;19904;-67
2022/11/24 11:15:53;;;;;;;;;;;7.10;99.90;;;;;;5080163;28;19904;-68
2022/11/24 11:18:19;;;;;;;;;;;7.10;99.90;;;;;;5089617;28;19911;-67
2022/11/24 11:20:52;;;;;;;;;;;7.10;99.90;;;;;;5077343;28;19915;-66
2022/11/24 11:23:29;;;;;;;;;;;7.10;99.90;;;;;;5082136;28;19908;-67
2022/11/24 11:26:13;;;;;;;;;;;7.20;99.90;;;;;;5089366;28;19907;-67
2022/11/24 11:28:39;;;;;;;;;;;7.20;99.90;;;;;;5089616;28;19951;-67
2022/11/24 11:31:05;;;;;;;;;;;7.20;99.90;;;;;;5089824;28;19947;-67
2022/11/24 11:33:31;;;;;;;;;;;7.30;99.90;;;;;;5089662;28;19908;-67
2022/11/24 11:36:00;;;;;;;;;;;7.30;99.90;;;;;;5089738;28;19904;-67
2022/11/24 11:38:31;;;;;;;;;;;7.40;99.90;;;;;;5079591;28;19914;-69
2022/11/24 11:40:57;;;;;;;;;;;7.40;99.90;;;;;;5088790;28;20369;-67
2022/11/24 11:43:32;;;;;;;;;;;7.50;99.90;;;;;;5089222;28;19927;-68
2022/11/24 11:46:00;;;;;;;;;;;7.50;99.90;;;;;;5088735;28;20053;-68
2022/11/24 11:48:31;;;;;;;;;;;7.60;99.90;;;;;;5089409;28;19908;-68
2022/11/24 11:51:04;;;;;;;;;;;7.60;99.90;;;;;;5077587;28;19905;-66
2022/11/24 11:53:44;;;;;;;;;;;7.60;99.90;;;;;;5077316;28;20639;-68
2022/11/24 11:56:10;;;;;;;;;;;7.70;99.90;;;;;;5091191;28;20122;-68
2022/11/24 11:58:54;;;;;;;;;;;7.80;99.90;;;;;;5095797;28;19976;-68
2022/11/24 12:01:19;;;;;;;;;;;7.80;99.90;;;;;;5079784;28;19907;-67
2022/11/24 12:03:45;;;;;;;;;;;7.80;99.90;;;;;;5083484;28;19904;-68
2022/11/24 12:06:33;;;;;;;;;;;7.90;99.90;;;;;;5095872;28;19912;-69
2022/11/24 12:08:58;;;;;;;;;;;7.90;99.90;;;;;;5080337;28;19908;-71
2022/11/24 12:11:44;;;;;;;;;;;7.90;99.90;;;;;;5083170;28;20422;-66
2022/11/24 12:14:33;;;;;;;;;;;7.90;99.90;;;;;;5073829;28;20349;-67
2022/11/24 12:17:01;;;;;;;;;;;7.90;99.90;;;;;;5058001;28;19961;-66
2022/11/24 12:19:39;;;;;;;;;;;7.90;99.90;;;;;;5092895;22;19916;-59
2022/11/24 12:22:07;;;;;;;;;;;7.90;99.90;;;;;;5047609;28;19920;-60
2022/11/24 12:24:51;;;;;;;;;;;7.90;99.90;;;;;;5050639;28;19928;-59
2022/11/24 12:27:35;;;;;;;;;;;8.00;99.90;;;;;;5050927;28;20483;-61
2022/11/24 12:30:03;;;;;;;;;;;8.00;99.90;;;;;;5023135;28;19912;-59
2022/11/24 12:32:39;;;;;;;;;;;8.00;99.90;;;;;;5042481;28;20380;-59
2022/11/24 12:35:05;;;;;;;;;;;8.00;99.90;;;;;;5050559;28;19908;-59
2022/11/24 12:37:37;;;;;;;;;;;8.00;99.90;;;;;;5050860;28;19967;-59
2022/11/24 12:40:06;;;;;;;;;;;8.00;99.90;;;;;;5050405;28;20277;-58
2022/11/24 12:42:34;;;;;;;;;;;8.00;99.90;;;;;;5051121;28;20420;-59
2022/11/24 12:45:02;;;;;;;;;;;8.00;99.90;;;;;;5050309;28;20175;-59
2022/11/24 12:47:31;;;;;;;;;;;8.00;99.90;;;;;;5050386;28;20140;-61
2022/11/24 12:49:59;;;;;;;;;;;8.00;99.90;;;;;;5047655;28;19913;-59
2022/11/24 12:52:30;;;;;;;;;;;8.00;99.90;;;;;;5050306;28;19909;-58
2022/11/24 12:54:55;;;;;;;;;;;8.00;99.90;;;;;;5050392;28;19909;-57
2022/11/24 12:57:50;;;;;;;;;;;8.00;99.90;;;;;;5050963;28;19911;-59
2022/11/24 13:00:19;;;;;;;;;;;8.00;99.90;;;;;;5032757;28;19908;-59
2022/11/24 13:03:00;;;;;;;;;;;8.00;99.90;;;;;;5046845;28;19959;-59
2022/11/24 13:05:44;;;;;;;;;;;8.10;99.90;;;;;;5049925;28;19920;-59
2022/11/24 13:08:09;;;;;;;;;;;8.10;99.90;;;;;;5050343;28;19909;-58
2022/11/24 13:10:36;;;;;;;;;;;8.10;99.90;;;;;;5049772;28;19905;-59
2022/11/24 13:13:04;;;;;;;;;;;8.10;99.90;;;;;;5049832;28;19919;-60
2022/11/24 13:15:31;;;;;;;;;;;8.20;99.90;;;;;;5036314;28;19923;-59
2022/11/24 13:17:57;;;;;;;;;;;8.20;99.90;;;;;;5050141;28;19944;-60
2022/11/24 13:20:24;;;;;;;;;;;8.20;99.90;;;;;;5013550;28;1038924;-59
2022/11/24 13:22:51;;;;;;;;;;;8.20;99.90;;;;;;5050754;28;20349;-59
2022/11/24 13:25:24;;;;;;;;;;;8.20;99.90;;;;;;5050803;28;19954;-59
2022/11/24 13:27:51;;;;;;;;;;;8.20;99.90;;;;;;5050454;28;20003;-60
2022/11/24 13:30:32;;;;;;;;;;;8.20;99.90;;;;;;5049381;28;20382;-60
2022/11/24 13:33:00;;;;;;;;;;;8.30;99.90;;;;;;5050523;28;19995;-59
2022/11/24 13:35:26;;;;;;;;;;;8.30;99.90;;;;;;5051261;28;20435;-59
2022/11/24 13:37:52;;;;;;;;;;;8.30;99.90;;;;;;5050429;28;19951;-59
2022/11/24 13:40:19;;;;;;;;;;;8.40;99.90;;;;;;5030793;28;20022;-60
2022/11/24 13:42:59;;;;;;;;;;;8.40;99.90;;;;;;5049093;28;20565;-60
2022/11/24 13:45:43;;;;;;;;;;;8.40;99.90;;;;;;5050647;28;20288;-58
2022/11/24 13:48:18;;;;;;;;;;;8.40;99.90;;;;;;5050686;28;19935;-58
2022/11/24 13:50:49;;;;;;;;;;;8.40;99.90;;;;;;5050148;28;19905;-59
2022/11/24 13:53:26;;;;;;;;;;;8.40;99.90;;;;;;5050223;28;20292;-60
2022/11/24 13:55:55;;;;;;;;;;;8.40;99.90;;;;;;5050905;28;20355;-58
2022/11/24 13:58:56;;;;;;;;;;;8.40;99.90;;;;;;5050937;28;19920;-60
2022/11/24 14:01:21;;;;;;;;;;;8.30;99.90;;;;;;4987964;28;19913;-60
2022/11/24 14:03:47;;;;;;;;;;;8.30;99.90;;;;;;5037824;28;19915;-60
2022/11/24 14:06:24;;;;;;;;;;;8.40;99.90;;;;;;5050616;28;20356;-60
2022/11/24 14:08:50;;;;;;;;;;;8.30;99.90;;;;;;5050860;28;19904;-60
2022/11/24 14:11:16;;;;;;;;;;;8.30;99.90;;;;;;5050855;28;20392;-58
2022/11/24 14:13:41;;;;;;;;;;;8.30;99.90;;;;;;5050367;28;19905;-59
2022/11/24 14:16:17;;;;;;;;;;;8.30;99.90;;;;;;5050216;28;20423;-59
2022/11/24 14:18:46;;;;;;;;;;;8.20;99.90;;;;;;5050738;28;19908;-59
2022/11/24 14:21:22;;;;;;;;;;;8.20;99.90;;;;;;5049320;28;19956;-61
2022/11/24 14:23:59;;;;;;;;;;;8.30;99.90;;;;;;5050472;28;19935;-59
2022/11/24 14:26:31;;;;;;;;;;;8.30;99.90;;;;;;5048348;28;20027;-59
2022/11/24 14:29:15;;;;;;;;;;;8.30;99.90;;;;;;5049535;28;19999;-58
2022/11/24 14:31:41;;;;;;;;;;;8.30;99.90;;;;;;5045920;28;20039;-59
2022/11/24 14:34:18;;;;;;;;;;;8.30;99.90;;;;;;5050073;28;19979;-60
2022/11/24 14:36:43;;;;;;;;;;;8.20;99.90;;;;;;5049451;28;19904;-58